Time;durP1;ratioP1;P1;durP2;ratioP2;P2;SDS_P1;SDS_P2;PMS_P1;PMS_P2;Temp;Humidity;BMP_temperature;BMP_pressure;BME280_temperature;BME280_humidity;BME280_pressure;Samples;Min_cycle;Max_cycle;Signal;HPM_P1;HPM_P2
2024/01/09 00:01:05;;;;;;;;;;;;;;;17.16;42.64;101398.38;5037136;28;1048;-61
2024/01/09 00:03:30;;;;;;;;;;;;;;;16.55;43.97;101404.88;5037253;28;1228;-60
2024/01/09 00:05:56;;;;;;;;;;;;;;;16.97;43.31;101409.75;5037117;28;1139;-60
2024/01/09 00:08:21;;;;;;;;;;;;;;;18.19;40.61;101415.53;5037009;28;851;-60
2024/01/09 00:10:47;;;;;;;;;;;;;;;17.10;43.00;101412.06;5035365;28;1906;-61
2024/01/09 00:13:12;;;;;;;;;;;;;;;16.50;44.30;101419.41;5042238;28;941;-60
2024/01/09 00:15:38;;;;;;;;;;;;;;;16.82;43.48;101421.38;5038522;28;1188;-62
2024/01/09 00:18:04;;;;;;;;;;;;;;;18.07;40.93;101416.56;5036329;28;1510;-61
2024/01/09 00:20:29;;;;;;;;;;;;;;;16.99;42.94;101418.56;5041271;28;929;-62
2024/01/09 00:22:55;;;;;;;;;;;;;;;16.41;44.47;101427.28;5036585;28;1159;-61
2024/01/09 00:25:20;;;;;;;;;;;;;;;16.98;43.38;101440.81;5036953;28;1067;-61
2024/01/09 00:27:46;;;;;;;;;;;;;;;18.05;40.70;101443.56;5036565;28;1087;-62
2024/01/09 00:30:12;;;;;;;;;;;;;;;17.05;42.91;101453.22;5037184;28;1096;-62
2024/01/09 00:32:37;;;;;;;;;;;;;;;16.46;44.26;101451.19;5036088;28;1902;-61
2024/01/09 00:35:03;;;;;;;;;;;;;;;16.95;43.21;101455.06;5036342;28;1410;-61
2024/01/09 00:37:29;;;;;;;;;;;;;;;18.15;40.28;101450.22;5036600;28;1095;-61
2024/01/09 00:39:54;;;;;;;;;;;;;;;17.09;42.64;101451.63;5036694;28;1180;-62
2024/01/09 00:42:20;;;;;;;;;;;;;;;16.52;43.89;101449.34;5036590;28;1090;-61
2024/01/09 00:44:46;;;;;;;;;;;;;;;16.99;43.19;101458.94;5035723;28;945;-62
2024/01/09 00:47:11;;;;;;;;;;;;;;;18.15;40.40;101448.28;5036440;28;1184;-62
2024/01/09 00:49:37;;;;;;;;;;;;;;;17.07;42.56;101456.56;5036515;28;1225;-62
2024/01/09 00:52:02;;;;;;;;;;;;;;;16.46;43.81;101451.19;5036316;28;1914;-61
2024/01/09 00:54:28;;;;;;;;;;;;;;;16.80;43.47;101459.25;5036335;28;1127;-61
2024/01/09 00:56:54;;;;;;;;;;;;;;;18.09;40.47;101463.94;5035942;28;1134;-61
2024/01/09 00:59:19;;;;;;;;;;;;;;;17.04;42.33;101461.72;5036054;28;1215;-61
2024/01/09 01:01:49;;;;;;;;;;;;;;;16.47;43.71;101457.53;5036317;28;1080;-61
2024/01/09 01:04:14;;;;;;;;;;;;;;;17.03;42.55;101447.16;5036428;28;1059;-61
2024/01/09 01:06:41;;;;;;;;;;;;;;;18.13;40.26;101451.31;5035854;28;1079;-61
2024/01/09 01:09:06;;;;;;;;;;;;;;;17.04;42.54;101457.06;5036033;28;838;-59
2024/01/09 01:11:32;;;;;;;;;;;;;;;16.47;43.78;101455.59;5035747;28;1981;-61
2024/01/09 01:13:58;;;;;;;;;;;;;;;17.52;41.69;101456.38;5036538;28;1131;-62
2024/01/09 01:16:23;;;;;;;;;;;;;;;17.68;40.95;101460.06;5035747;28;1064;-61
2024/01/09 01:18:49;;;;;;;;;;;;;;;16.72;43.21;101457.81;5035971;28;1079;-61
2024/01/09 01:21:15;;;;;;;;;;;;;;;16.28;44.24;101455.09;5036068;28;1176;-61
2024/01/09 01:23:41;;;;;;;;;;;;;;;17.53;41.46;101452.53;5036205;28;1060;-62
2024/01/09 01:26:07;;;;;;;;;;;;;;;17.86;40.54;101450.56;5036205;28;1008;-61
2024/01/09 01:28:32;;;;;;;;;;;;;;;16.88;42.72;101450.59;5035634;28;1238;-60
2024/01/09 01:30:58;;;;;;;;;;;;;;;16.40;43.96;101458.53;5035855;28;1981;-60
2024/01/09 01:33:23;;;;;;;;;;;;;;;17.56;41.48;101463.03;5037765;28;1534;-62
2024/01/09 01:35:49;;;;;;;;;;;;;;;17.75;40.69;101453.25;5039695;28;1080;-60
2024/01/09 01:38:15;;;;;;;;;;;;;;;16.79;42.78;101465.00;5040382;28;1028;-60
2024/01/09 01:40:40;;;;;;;;;;;;;;;16.36;43.75;101467.56;5039506;28;1016;-61
2024/01/09 01:43:06;;;;;;;;;;;;;;;17.54;41.28;101465.19;5048386;28;1541;-61
2024/01/09 01:45:31;;;;;;;;;;;;;;;17.66;40.68;101451.28;5043920;28;1075;-61
2024/01/09 01:47:57;;;;;;;;;;;;;;;16.67;43.04;101449.50;5045952;28;1083;-60
2024/01/09 01:50:23;;;;;;;;;;;;;;;16.32;43.63;101456.25;5044920;28;1060;-61
2024/01/09 01:52:48;;;;;;;;;;;;;;;17.20;41.81;101455.28;5039664;28;1910;-61
2024/01/09 01:55:15;;;;;;;;;;;;;;;18.02;39.86;101444.09;5021683;28;994;-60
2024/01/09 01:57:40;;;;;;;;;;;;;;;16.92;42.16;101459.16;5021314;28;1044;-62
2024/01/09 02:00:07;;;;;;;;;;;;;;;16.37;43.42;101459.06;5039393;28;1147;-61
2024/01/09 02:02:35;;;;;;;;;;;;;;;17.08;42.07;101463.72;5022511;28;1140;-62
2024/01/09 02:05:02;;;;;;;;;;;;;;;18.17;39.67;101453.50;5039532;28;1134;-62
2024/01/09 02:07:27;;;;;;;;;;;;;;;17.04;42.06;101457.06;5039336;28;1243;-62
2024/01/09 02:09:53;;;;;;;;;;;;;;;16.50;43.29;101440.53;5021057;28;1146;-61
2024/01/09 02:12:19;;;;;;;;;;;;;;;16.55;43.30;101443.31;5039065;28;1898;-62
2024/01/09 02:14:45;;;;;;;;;;;;;;;18.02;40.08;101451.50;5021598;28;1088;-62
2024/01/09 02:17:10;;;;;;;;;;;;;;;17.37;41.24;101438.66;5021454;28;1100;-61
2024/01/09 02:19:36;;;;;;;;;;;;;;;16.59;42.76;101445.31;5038828;28;1187;-62
2024/01/09 02:22:01;;;;;;;;;;;;;;;16.21;43.94;101454.44;5038977;28;850;-63
2024/01/09 02:24:27;;;;;;;;;;;;;;;17.64;40.75;101462.50;5038963;28;1060;-61
2024/01/09 02:26:56;;;;;;;;;;;;;;;17.62;40.57;101450.97;5039015;28;1099;-61
2024/01/09 02:29:22;;;;;;;;;;;;;;;16.60;42.93;101455.19;5038612;28;1270;-62
2024/01/09 02:31:48;;;;;;;;;;;;;;;16.22;43.56;101456.94;5021298;28;1989;-63
2024/01/09 02:34:14;;;;;;;;;;;;;;;17.51;40.98;101447.28;5020925;28;882;-60
2024/01/09 02:36:39;;;;;;;;;;;;;;;17.84;40.08;101444.47;5021174;28;1052;-62
2024/01/09 02:39:05;;;;;;;;;;;;;;;16.81;42.29;101443.63;5038646;28;1136;-63
2024/01/09 02:41:34;;;;;;;;;;;;;;;16.35;43.11;101432.94;5038672;28;1067;-61
2024/01/09 02:43:59;;;;;;;;;;;;;;;17.70;40.57;101431.22;5038110;28;1242;-63
2024/01/09 02:46:25;;;;;;;;;;;;;;;17.57;40.57;101435.25;5038766;28;948;-61
2024/01/09 02:48:51;;;;;;;;;;;;;;;16.75;42.22;101442.75;5038426;28;1179;-63
2024/01/09 02:51:16;;;;;;;;;;;;;;;16.47;43.11;101450.13;5038533;28;1977;-60
2024/01/09 02:53:42;;;;;;;;;;;;;;;17.91;39.82;101442.38;5038316;28;1060;-60
2024/01/09 02:56:07;;;;;;;;;;;;;;;17.31;40.99;101450.72;5038159;28;1219;-61
2024/01/09 02:58:33;;;;;;;;;;;;;;;16.68;42.33;101448.44;5038347;28;956;-61
2024/01/09 03:01:00;;;;;;;;;;;;;;;16.81;42.51;101446.38;5021091;28;1088;-61
2024/01/09 03:03:26;;;;;;;;;;;;;;;18.13;39.51;101455.97;5038412;28;1184;-60
2024/01/09 03:05:51;;;;;;;;;;;;;;;17.07;41.66;101466.72;5038430;28;1108;-62
2024/01/09 03:08:17;;;;;;;;;;;;;;;16.47;43.04;101485.00;5038425;28;1073;-61
2024/01/09 03:10:42;;;;;;;;;;;;;;;16.69;42.70;101494.03;5037624;28;1914;-62
2024/01/09 03:13:08;;;;;;;;;;;;;;;18.02;39.79;101493.63;5038139;28;1110;-62
2024/01/09 03:15:34;;;;;;;;;;;;;;;17.14;41.43;101504.97;5037793;28;1153;-61
2024/01/09 03:18:03;;;;;;;;;;;;;;;16.48;42.86;101514.94;5038301;28;1282;-61
2024/01/09 03:20:28;;;;;;;;;;;;;;;16.84;42.43;101522.75;5037767;28;1175;-62
2024/01/09 03:22:54;;;;;;;;;;;;;;;18.15;39.41;101524.53;5037665;28;974;-62
2024/01/09 03:25:19;;;;;;;;;;;;;;;17.17;41.34;101532.78;5037780;28;1143;-62
2024/01/09 03:27:45;;;;;;;;;;;;;;;16.53;42.69;101545.16;5037752;28;1258;-61
2024/01/09 03:30:11;;;;;;;;;;;;;;;16.19;43.58;101558.97;5038079;28;1060;-62
2024/01/09 03:32:36;;;;;;;;;;;;;;;17.57;40.73;101550.75;5037807;28;1913;-60
2024/01/09 03:35:02;;;;;;;;;;;;;;;17.54;40.57;101550.44;5037290;28;978;-60
2024/01/09 03:37:27;;;;;;;;;;;;;;;16.62;42.61;101547.47;5037496;28;1508;-61
2024/01/09 03:39:53;;;;;;;;;;;;;;;16.21;43.36;101553.25;5036677;28;1300;-59
2024/01/09 03:42:19;;;;;;;;;;;;;;;17.64;40.10;101542.25;5037545;28;1115;-62
2024/01/09 03:44:45;;;;;;;;;;;;;;;17.64;40.15;101553.25;5037418;28;977;-62
2024/01/09 03:47:10;;;;;;;;;;;;;;;16.71;42.11;101568.75;5037508;28;1068;-61
2024/01/09 03:49:36;;;;;;;;;;;;;;;16.24;43.08;101570.03;5037567;28;1020;-61
2024/01/09 03:52:03;;;;;;;;;;;;;;;17.60;40.47;101558.47;5037125;28;1979;-60
2024/01/09 03:54:28;;;;;;;;;;;;;;;17.68;40.02;101562.66;5036745;28;1080;-59
2024/01/09 03:56:54;;;;;;;;;;;;;;;16.76;41.93;101570.75;5035458;28;1154;-60
2024/01/09 03:59:19;;;;;;;;;;;;;;;16.53;42.82;101594.59;5037099;28;1134;-64
2024/01/09 04:01:45;;;;;;;;;;;;;;;17.97;39.66;101605.59;5037331;28;1076;-63
2024/01/09 04:04:10;;;;;;;;;;;;;;;17.33;40.82;101605.22;5036974;28;1075;-63
2024/01/09 04:06:43;;;;;;;;;;;;;;;16.66;42.16;101603.56;5037393;28;1266;-62
2024/01/09 04:09:10;;;;;;;;;;;;;;;16.55;42.45;101597.06;5036906;28;2420;-63
2024/01/09 04:11:41;;;;;;;;;;;;;;;17.97;39.68;101583.56;5036480;28;1976;-64
2024/01/09 04:14:06;;;;;;;;;;;;;;;17.09;41.22;101572.53;5036559;28;2483;-64
2024/01/09 04:16:32;;;;;;;;;;;;;;;16.46;42.57;101582.16;5018756;28;1957;-64
2024/01/09 04:18:57;;;;;;;;;;;;;;;16.60;42.48;101610.88;5036375;28;1831;-61
2024/01/09 04:21:23;;;;;;;;;;;;;;;18.02;39.33;101622.97;5035887;28;1751;-58
2024/01/09 04:23:48;;;;;;;;;;;;;;;17.18;40.95;101616.03;5035655;28;2017;-65
2024/01/09 04:26:14;;;;;;;;;;;;;;;16.55;42.17;101608.06;5035900;28;1291;-64
2024/01/09 04:28:40;;;;;;;;;;;;;;;16.68;42.12;101596.72;5036592;28;1230;-63
2024/01/09 04:31:05;;;;;;;;;;;;;;;18.05;39.27;101608.69;5032665;28;1910;-64
2024/01/09 04:33:31;;;;;;;;;;;;;;;17.46;40.28;101590.25;5030981;28;1106;-61
2024/01/09 04:35:57;;;;;;;;;;;;;;;16.65;41.79;101593.63;5036014;28;1118;-61
2024/01/09 04:38:22;;;;;;;;;;;;;;;16.24;43.04;101586.50;5036308;28;1077;-65
2024/01/09 04:40:48;;;;;;;;;;;;;;;17.56;40.21;101573.84;5036287;28;1084;-62
2024/01/09 04:43:13;;;;;;;;;;;;;;;17.78;39.42;101582.00;5036074;28;1180;-63
2024/01/09 04:45:39;;;;;;;;;;;;;;;16.79;41.41;101591.34;5035527;28;1349;-65
2024/01/09 04:48:05;;;;;;;;;;;;;;;16.33;42.67;101602.56;5036079;28;1071;-65
2024/01/09 04:50:31;;;;;;;;;;;;;;;17.07;41.24;101587.63;5035306;28;1075;-58
2024/01/09 04:52:56;;;;;;;;;;;;;;;18.20;38.54;101582.34;5029414;28;2362;-56
2024/01/09 04:55:22;;;;;;;;;;;;;;;17.19;40.67;101601.22;5035475;28;1004;-62
2024/01/09 04:57:47;;;;;;;;;;;;;;;16.57;41.86;101601.25;5035437;28;1123;-62
2024/01/09 05:00:13;;;;;;;;;;;;;;;16.91;41.65;101601.19;5035725;28;1200;-63
2024/01/09 05:02:39;;;;;;;;;;;;;;;18.03;38.97;101619.09;5035895;28;1139;-63
2024/01/09 05:05:05;;;;;;;;;;;;;;;17.01;40.92;101622.47;5035906;28;1103;-66
2024/01/09 05:07:30;;;;;;;;;;;;;;;16.36;42.40;101624.81;5035651;28;1060;-64
2024/01/09 05:09:56;;;;;;;;;;;;;;;17.46;40.29;101639.75;5035472;28;1445;-62
2024/01/09 05:12:21;;;;;;;;;;;;;;;17.66;39.61;101647.38;5035665;28;1985;-61
2024/01/09 05:14:47;;;;;;;;;;;;;;;16.64;42.03;101657.91;5035303;28;1087;-63
2024/01/09 05:17:13;;;;;;;;;;;;;;;16.22;42.80;101672.91;5035344;28;1037;-62
2024/01/09 05:19:39;;;;;;;;;;;;;;;16.98;41.32;101666.09;5034728;28;1410;-65
2024/01/09 05:22:05;;;;;;;;;;;;;;;18.07;39.22;101682.72;5035198;28;1117;-65
2024/01/09 05:24:30;;;;;;;;;;;;;;;17.18;41.18;101687.50;5017940;28;2678;-65
2024/01/09 05:26:56;;;;;;;;;;;;;;;16.34;43.05;101673.66;5035460;28;1110;-65
2024/01/09 05:29:22;;;;;;;;;;;;;;;16.12;43.27;101681.81;5035285;28;1008;-66
2024/01/09 05:31:47;;;;;;;;;;;;;;;15.85;43.72;101665.97;5035502;28;1980;-66
2024/01/09 05:34:13;;;;;;;;;;;;;;;16.87;42.08;101671.44;5035113;28;1004;-67
2024/01/09 05:36:38;;;;;;;;;;;;;;;17.02;41.82;101667.25;5035479;28;1048;-65
2024/01/09 05:39:04;;;;;;;;;;;;;;;16.20;43.45;101664.06;5035566;28;1084;-65
2024/01/09 05:41:30;;;;;;;;;;;;;;;15.89;43.59;101658.91;5034408;28;1203;-65
2024/01/09 05:43:57;;;;;;;;;;;;;;;17.55;41.01;101668.41;5035511;28;1104;-64
2024/01/09 05:46:22;;;;;;;;;;;;;;;16.71;42.82;101683.28;5034967;28;1071;-62
2024/01/09 05:48:48;;;;;;;;;;;;;;;16.11;43.71;101695.78;5035246;28;1008;-65
2024/01/09 05:51:14;;;;;;;;;;;;;;;16.94;42.59;101715.19;5035362;28;1906;-65
2024/01/09 05:53:40;;;;;;;;;;;;;;;17.10;42.09;101703.34;5035663;28;1799;-65
2024/01/09 05:56:09;;;;;;;;;;;;;;;16.17;43.82;101716.72;5033964;28;1207;-67
2024/01/09 05:58:34;;;;;;;;;;;;;;;16.30;43.85;101723.78;5029774;28;1286;-67
2024/01/09 06:01:00;;;;;;;;;;;;;;;17.95;40.50;101746.19;5035230;28;1110;-64
2024/01/09 06:03:26;;;;;;;;;;;;;;;17.18;41.88;101748.81;5034998;28;1123;-65
2024/01/09 06:05:51;;;;;;;;;;;;;;;16.41;43.66;101751.19;5035473;28;1071;-66
2024/01/09 06:08:17;;;;;;;;;;;;;;;16.01;43.92;101749.38;5034268;28;1203;-63
2024/01/09 06:10:42;;;;;;;;;;;;;;;17.40;41.86;101758.97;5034071;28;1959;-65
2024/01/09 06:13:08;;;;;;;;;;;;;;;16.87;42.83;101763.97;5035057;28;1241;-67
2024/01/09 06:15:34;;;;;;;;;;;;;;;16.16;43.92;101758.94;5035352;28;1056;-67
2024/01/09 06:17:59;;;;;;;;;;;;;;;16.18;44.02;101765.03;5035202;28;1000;-65
2024/01/09 06:20:25;;;;;;;;;;;;;;;17.88;40.70;101764.75;5038215;28;1123;-64
2024/01/09 06:22:50;;;;;;;;;;;;;;;16.74;42.99;101765.16;5038359;28;2412;-63
2024/01/09 06:25:16;;;;;;;;;;;;;;;16.18;44.12;101754.06;5038246;28;1056;-66
2024/01/09 06:27:42;;;;;;;;;;;;;;;16.01;44.09;101746.63;5038298;28;1100;-65
2024/01/09 06:30:07;;;;;;;;;;;;;;;17.72;40.92;101764.59;5038514;28;1167;-64
2024/01/09 06:32:33;;;;;;;;;;;;;;;17.30;41.69;101778.91;5038256;28;1977;-66
2024/01/09 06:34:58;;;;;;;;;;;;;;;16.47;43.48;101779.56;5038111;28;1131;-63
2024/01/09 06:37:24;;;;;;;;;;;;;;;16.11;44.05;101767.09;5038915;28;1204;-64
2024/01/09 06:39:49;;;;;;;;;;;;;;;17.91;40.78;101778.06;5038585;28;989;-64
2024/01/09 06:42:15;;;;;;;;;;;;;;;16.82;42.80;101788.63;5038112;28;1129;-65
2024/01/09 06:44:41;;;;;;;;;;;;;;;16.25;43.90;101783.00;5038341;28;1448;-66
2024/01/09 06:47:06;;;;;;;;;;;;;;;17.60;41.32;101789.50;5031608;28;977;-67
2024/01/09 06:49:32;;;;;;;;;;;;;;;17.88;40.43;101790.38;5038002;28;1083;-67
2024/01/09 06:51:57;;;;;;;;;;;;;;;16.80;42.82;101796.28;5038205;28;1918;-66
2024/01/09 06:54:23;;;;;;;;;;;;;;;17.10;42.58;101796.78;5038226;28;2260;-67
2024/01/09 06:56:48;;;;;;;;;;;;;;;17.86;40.64;101783.47;5037949;28;941;-67
2024/01/09 06:59:14;;;;;;;;;;;;;;;16.66;43.02;101785.66;5037931;28;1076;-67
2024/01/09 07:01:40;;;;;;;;;;;;;;;17.26;42.24;101797.00;5037987;28;1017;-67
2024/01/09 07:04:06;;;;;;;;;;;;;;;17.79;40.81;101811.16;5037353;28;1075;-59
2024/01/09 07:06:32;;;;;;;;;;;;;;;16.72;42.99;101798.38;5037160;28;1000;-68
2024/01/09 07:08:58;;;;;;;;;;;;;;;17.39;41.97;101793.91;5034080;28;1057;-66
2024/01/09 07:11:23;;;;;;;;;;;;;;;17.68;40.93;101806.63;5036693;28;1959;-67
2024/01/09 07:13:49;;;;;;;;;;;;;;;16.65;43.09;101816.94;5037572;28;1028;-63
2024/01/09 07:16:14;;;;;;;;;;;;;;;16.35;43.46;101804.31;5037694;28;1032;-64
2024/01/09 07:18:40;;;;;;;;;;;;;;;17.92;40.73;101810.81;5037167;28;1195;-63
2024/01/09 07:21:06;;;;;;;;;;;;;;;16.81;42.73;101819.94;5037118;28;1151;-67
2024/01/09 07:23:31;;;;;;;;;;;;;;;16.28;43.89;101802.81;5036973;28;2039;-66
2024/01/09 07:25:58;;;;;;;;;;;;;;;17.86;40.74;101808.22;5037913;28;1016;-67
2024/01/09 07:28:23;;;;;;;;;;;;;;;17.33;41.66;101805.91;5037335;28;1107;-67
2024/01/09 07:30:52;;;;;;;;;;;;;;;16.55;43.23;101817.59;5037292;28;1967;-65
2024/01/09 07:33:18;;;;;;;;;;;;;;;16.38;43.43;101814.81;5037356;28;1031;-66
2024/01/09 07:35:43;;;;;;;;;;;;;;;16.05;43.62;101824.63;5037137;28;979;-64
2024/01/09 07:38:09;;;;;;;;;;;;;;;17.82;40.79;101832.66;5037029;28;1172;-66
2024/01/09 07:40:35;;;;;;;;;;;;;;;16.56;43.26;101829.38;5037156;28;1084;-66
2024/01/09 07:43:00;;;;;;;;;;;;;;;16.22;43.63;101815.59;5030230;28;1195;-66
2024/01/09 07:45:29;;;;;;;;;;;;;;;17.24;42.04;101822.00;5026805;28;1163;-66
2024/01/09 07:47:55;;;;;;;;;;;;;;;17.82;40.32;101823.59;5031934;28;1128;-60
2024/01/09 07:50:21;;;;;;;;;;;;;;;16.69;42.91;101829.09;5036582;28;1334;-70
2024/01/09 07:52:46;;;;;;;;;;;;;;;16.22;43.79;101832.06;5035913;28;1894;-63
2024/01/09 07:55:12;;;;;;;;;;;;;;;17.63;41.05;101832.16;5036005;28;930;-66
2024/01/09 07:57:38;;;;;;;;;;;;;;;16.86;42.41;101836.50;5036212;28;1038;-66
2024/01/09 08:00:04;;;;;;;;;;;;;;;16.35;43.52;101840.00;5036047;28;981;-67
2024/01/09 08:02:37;;;;;;;;;;;;;;;17.83;40.64;101837.09;5036307;28;1012;-64
2024/01/09 08:05:02;;;;;;;;;;;;;;;17.31;41.47;101835.56;5036032;28;1246;-66
2024/01/09 08:07:30;;;;;;;;;;;;;;;16.58;42.93;101835.47;5036127;28;1064;-66
2024/01/09 08:09:55;;;;;;;;;;;;;;;16.46;43.26;101842.94;5036605;28;1266;-61
2024/01/09 08:12:21;;;;;;;;;;;;;;;18.10;39.87;101837.19;5035858;28;1906;-64
2024/01/09 08:14:49;;;;;;;;;;;;;;;16.85;42.50;101830.16;5036790;28;1203;-66
2024/01/09 08:17:14;;;;;;;;;;;;;;;17.21;41.76;101838.19;5036482;28;1080;-63
2024/01/09 08:19:40;;;;;;;;;;;;;;;17.65;40.44;101838.22;5036632;28;1524;-64
2024/01/09 08:22:06;;;;;;;;;;;;;;;16.72;42.63;101827.75;5036652;28;1156;-62
2024/01/09 08:24:32;;;;;;;;;;;;;;;16.77;42.47;101828.69;5035610;28;2582;-65
2024/01/09 08:26:58;;;;;;;;;;;;;;;17.62;40.59;101817.56;5036352;28;1111;-63
2024/01/09 08:29:27;;;;;;;;;;;;;;;16.58;42.77;101816.25;5036075;28;1124;-61
2024/01/09 08:31:52;;;;;;;;;;;;;;;17.65;40.60;101805.22;5036430;28;1983;-59
2024/01/09 08:34:18;;;;;;;;;;;;;;;17.06;41.40;101812.09;5036061;28;1092;-62
2024/01/09 08:36:45;;;;;;;;;;;;;;;16.57;42.45;101806.34;5036168;28;1068;-61
2024/01/09 08:39:10;;;;;;;;;;;;;;;17.16;41.63;101811.44;5035939;28;1365;-67
2024/01/09 08:41:36;;;;;;;;;;;;;;;18.17;39.22;101803.09;5035928;28;1228;-66
2024/01/09 08:44:02;;;;;;;;;;;;;;;16.86;41.84;101801.59;5036001;28;1384;-61
2024/01/09 08:46:27;;;;;;;;;;;;;;;16.85;41.98;101808.19;5035982;28;1087;-64
2024/01/09 08:48:53;;;;;;;;;;;;;;;18.39;38.83;101790.09;5035804;28;1048;-61
2024/01/09 08:51:18;;;;;;;;;;;;;;;17.52;40.48;101794.63;5036531;28;1980;-64
2024/01/09 08:53:44;;;;;;;;;;;;;;;16.80;41.80;101799.84;5036092;28;2237;-65
2024/01/09 08:56:10;;;;;;;;;;;;;;;17.64;40.54;101805.47;5035944;28;1032;-63
2024/01/09 08:58:35;;;;;;;;;;;;;;;17.68;40.19;101785.44;5035870;28;1095;-65
2024/01/09 09:01:01;;;;;;;;;;;;;;;16.82;41.68;101791.38;5028901;28;1014;-66
2024/01/09 09:03:27;;;;;;;;;;;;;;;18.42;38.70;101795.06;5031333;28;1235;-63
2024/01/09 09:05:52;;;;;;;;;;;;;;;17.73;39.92;101798.44;5035238;28;1096;-70
2024/01/09 09:08:20;;;;;;;;;;;;;;;16.92;41.53;101784.16;5034990;28;1075;-62
2024/01/09 09:10:46;;;;;;;;;;;;;;;16.74;41.73;101800.84;5030584;28;1992;-66
2024/01/09 09:13:11;;;;;;;;;;;;;;;16.73;42.11;101808.28;5034724;28;996;-65
2024/01/09 09:15:37;;;;;;;;;;;;;;;18.34;38.54;101787.31;5035197;28;1154;-65
2024/01/09 09:18:03;;;;;;;;;;;;;;;17.17;41.07;101796.63;5034830;28;1060;-65
2024/01/09 09:20:28;;;;;;;;;;;;;;;16.66;42.04;101791.13;5017393;28;1520;-67
2024/01/09 09:22:54;;;;;;;;;;;;;;;16.35;42.43;101790.59;5034950;28;1862;-65
2024/01/09 09:25:20;;;;;;;;;;;;;;;17.63;40.06;101804.66;5034567;28;1424;-64
2024/01/09 09:27:45;;;;;;;;;;;;;;;18.61;38.02;101797.47;5034070;28;1053;-63
2024/01/09 09:30:12;;;;;;;;;;;;;;;17.12;40.75;101793.78;5035551;28;1321;-65
2024/01/09 09:32:38;;;;;;;;;;;;;;;16.66;41.65;101802.13;5035506;28;1910;-65
2024/01/09 09:35:04;;;;;;;;;;;;;;;16.32;42.57;101812.22;5034814;28;1463;-66
2024/01/09 09:37:30;;;;;;;;;;;;;;;17.92;39.49;101788.81;5034539;28;1001;-67
2024/01/09 09:39:55;;;;;;;;;;;;;;;17.47;40.03;101791.78;5024894;28;976;-64
2024/01/09 09:42:22;;;;;;;;;;;;;;;16.74;41.59;101793.44;5034391;28;1119;-63
2024/01/09 09:44:52;;;;;;;;;;;;;;;16.31;42.18;101789.41;5032014;28;1175;-67
2024/01/09 09:47:18;;;;;;;;;;;;;;;17.87;39.38;101780.44;5034407;28;1079;-64
2024/01/09 09:49:45;;;;;;;;;;;;;;;18.49;37.81;101785.78;5033887;28;1133;-62
2024/01/09 09:52:11;;;;;;;;;;;;;;;17.07;40.68;101786.31;5034274;28;1906;-66
2024/01/09 09:54:37;;;;;;;;;;;;;;;16.70;41.75;101774.97;5019439;28;2618;-64
2024/01/09 09:57:03;;;;;;;;;;;;;;;18.46;37.93;101776.94;5020962;28;1053;-65
2024/01/09 09:59:29;;;;;;;;;;;;;;;17.37;40.11;101774.06;5038077;28;1204;-62
2024/01/09 10:01:54;;;;;;;;;;;;;;;17.38;40.22;101774.91;5038636;28;888;-64
2024/01/09 10:04:26;;;;;;;;;;;;;;;18.32;38.20;101783.16;5020602;28;1060;-63
2024/01/09 10:06:56;;;;;;;;;;;;;;;17.11;40.61;101770.16;5038734;28;1072;-64
2024/01/09 10:09:21;;;;;;;;;;;;;;;17.91;39.09;101756.06;5038450;28;1093;-64
2024/01/09 10:11:51;;;;;;;;;;;;;;;17.54;39.40;101757.50;5020298;28;1938;-65
2024/01/09 10:14:17;;;;;;;;;;;;;;;16.77;41.32;101760.00;5039270;28;1159;-61
2024/01/09 10:16:49;;;;;;;;;;;;;;;17.54;39.86;101763.00;5038978;28;972;-64
2024/01/09 10:19:15;;;;;;;;;;;;;;;17.97;38.41;101765.19;5037807;28;1051;-67
2024/01/09 10:21:41;;;;;;;;;;;;;;;16.95;40.67;101757.28;5037870;28;1028;-65
2024/01/09 10:24:07;;;;;;;;;;;;;;;16.62;41.43;101768.00;5040388;28;2505;-66
2024/01/09 10:26:33;;;;;;;;;;;;;;;17.83;38.99;101759.22;5038589;28;1079;-62
2024/01/09 10:28:58;;;;;;;;;;;;;;;17.57;39.21;101761.66;5036842;28;1004;-63
2024/01/09 10:31:24;;;;;;;;;;;;;;;16.82;40.77;101755.69;5033174;28;1907;-64
2024/01/09 10:33:50;;;;;;;;;;;;;;;18.15;38.29;101777.75;5037044;28;1294;-63
2024/01/09 10:36:16;;;;;;;;;;;;;;;17.70;38.92;101771.47;5035083;28;1220;-66
2024/01/09 10:38:42;;;;;;;;;;;;;;;16.87;40.81;101758.47;5038332;28;1117;-67
2024/01/09 10:41:17;;;;;;;;;;;;;;;16.67;40.98;101762.56;5037723;28;1040;-68
2024/01/09 10:43:43;;;;;;;;;;;;;;;18.35;37.68;101760.59;5038846;28;1190;-61
2024/01/09 10:46:09;;;;;;;;;;;;;;;17.39;39.58;101766.41;5038275;28;1119;-66
2024/01/09 10:48:35;;;;;;;;;;;;;;;16.72;40.80;101768.16;5038151;28;1115;-67
2024/01/09 10:51:00;;;;;;;;;;;;;;;18.09;38.26;101765.84;5038168;28;1979;-64
2024/01/09 10:53:26;;;;;;;;;;;;;;;17.53;39.00;101752.25;5020277;28;1811;-66
2024/01/09 10:55:52;;;;;;;;;;;;;;;16.81;40.58;101765.81;5020308;28;1263;-64
2024/01/09 10:58:17;;;;;;;;;;;;;;;16.49;41.28;101769.13;5020308;28;1075;-66
2024/01/09 11:00:43;;;;;;;;;;;;;;;17.94;38.32;101758.28;5037318;28;1060;-66
2024/01/09 11:03:09;;;;;;;;;;;;;;;17.35;39.32;101753.41;5020260;28;1056;-65
2024/01/09 11:05:35;;;;;;;;;;;;;;;16.68;40.77;101761.50;5037638;28;1115;-65
2024/01/09 11:08:01;;;;;;;;;;;;;;;18.31;37.49;101743.75;5038329;28;1097;-68
2024/01/09 11:10:26;;;;;;;;;;;;;;;17.17;39.46;101747.13;5020091;28;1169;-62
2024/01/09 11:12:52;;;;;;;;;;;;;;;16.59;40.75;101749.25;5037686;28;1979;-63
2024/01/09 11:15:17;;;;;;;;;;;;;;;17.68;38.69;101748.88;5037668;28;1095;-66
2024/01/09 11:17:47;;;;;;;;;;;;;;;18.06;37.73;101753.47;5037448;28;1068;-67
2024/01/09 11:20:13;;;;;;;;;;;;;;;17.01;39.97;101759.84;5019946;28;1119;-61
2024/01/09 11:22:39;;;;;;;;;;;;;;;16.50;40.83;101745.28;5020049;28;2367;-63
2024/01/09 11:25:09;;;;;;;;;;;;;;;17.94;38.06;101761.84;5036386;28;1168;-66
2024/01/09 11:27:39;;;;;;;;;;;;;;;17.39;38.63;101760.91;5037163;28;1172;-64
2024/01/09 11:30:05;;;;;;;;;;;;;;;16.71;40.12;101762.91;5037217;28;1235;-65
2024/01/09 11:32:31;;;;;;;;;;;;;;;18.21;37.38;101776.72;5036518;28;1914;-66
2024/01/09 11:35:13;;;;;;;;;;;;;;;17.56;38.44;101782.03;5019200;28;1251;-64
2024/01/09 11:37:40;;;;;;;;;;;;;;;16.79;40.02;101772.63;5036811;28;1204;-70
2024/01/09 11:40:06;;;;;;;;;;;;;;;17.79;37.93;101789.16;5019156;28;1460;-64
2024/01/09 11:42:31;;;;;;;;;;;;;;;16.90;39.48;101785.47;5035127;28;1350;-68
2024/01/09 11:44:57;;;;;;;;;;;;;;;16.56;40.22;101772.59;5036924;28;1175;-66
2024/01/09 11:47:23;;;;;;;;;;;;;;;18.28;36.83;101794.66;5036875;28;1175;-66
2024/01/09 11:49:48;;;;;;;;;;;;;;;17.60;38.09;101799.69;5036948;28;1063;-68
2024/01/09 11:52:14;;;;;;;;;;;;;;;16.85;39.53;101802.69;5037033;28;1913;-65
2024/01/09 11:54:40;;;;;;;;;;;;;;;17.84;37.67;101810.38;5037115;28;2697;-66
2024/01/09 11:57:07;;;;;;;;;;;;;;;17.93;37.28;101793.19;5037152;28;1084;-68
2024/01/09 11:59:33;;;;;;;;;;;;;;;17.00;39.32;101790.28;5019062;28;1045;-66
2024/01/09 12:01:58;;;;;;;;;;;;;;;16.79;39.85;101800.94;5036545;28;901;-65
2024/01/09 12:04:24;;;;;;;;;;;;;;;18.15;36.88;101797.03;5036672;28;1103;-67
2024/01/09 12:06:49;;;;;;;;;;;;;;;16.99;39.14;101811.44;5035747;28;1005;-68
2024/01/09 12:09:15;;;;;;;;;;;;;;;17.98;37.30;101816.38;5036156;28;1029;-68
2024/01/09 12:11:41;;;;;;;;;;;;;;;17.50;38.11;101818.78;5035565;28;1914;-68
2024/01/09 12:14:07;;;;;;;;;;;;;;;16.84;39.27;101825.72;5036495;28;1001;-66
2024/01/09 12:16:32;;;;;;;;;;;;;;;16.51;40.10;101821.06;5035447;28;1123;-67
2024/01/09 12:18:58;;;;;;;;;;;;;;;17.22;38.69;101831.56;5036059;28;985;-67
2024/01/09 12:21:25;;;;;;;;;;;;;;;18.54;36.04;101827.16;5034987;28;1088;-68
2024/01/09 12:23:51;;;;;;;;;;;;;;;17.50;38.06;101830.63;5036090;28;2668;-68
2024/01/09 12:26:19;;;;;;;;;;;;;;;16.92;39.32;101816.28;5018746;28;1076;-69
2024/01/09 12:28:44;;;;;;;;;;;;;;;17.59;38.04;101831.00;5018499;28;1029;-67
2024/01/09 12:31:10;;;;;;;;;;;;;;;18.18;36.78;101837.81;5017865;28;1914;-67
2024/01/09 12:33:36;;;;;;;;;;;;;;;17.01;38.82;101836.78;5035420;28;1054;-67
2024/01/09 12:36:03;;;;;;;;;;;;;;;16.73;39.74;101841.25;5018739;28;1009;-63
2024/01/09 12:38:29;;;;;;;;;;;;;;;18.34;36.51;101841.53;5035272;28;842;-62
2024/01/09 12:41:00;;;;;;;;;;;;;;;17.24;38.51;101837.66;5036200;28;1000;-62